LIMW

Details ICAO LIMW (AOT)
Name AOSTA
Region Italy
Timezone Europe/Rome (UTC+2.0)
Plans Departing 52
Arriving 79
Stats Elevation 1,791 ft / 546 m (AMSL)
Location 45.738574° 7.367893°
Runways 1
Magnetic Variation 2.106° E
Sunrise 2018-05-23 03:52:36 UTC / 2018-05-23 05:52:36 Local
Sunset 2018-05-23 19:04:48 UTC / 2018-05-23 21:04:48 Local
Advertisement - Login to hide

Runways

ID Width Length Bearing (true) Bearing (mag) Surface Threshold Offset Overrun Length
09 98 ft / 30 m 5,254 ft / 1,601 m 84.73° 82.62° Asphalt 213 ft / 65 m 0 ft / 0 m
27 98 ft / 30 m 5,254 ft / 1,601 m 264.75° 262.64° Asphalt 115 ft / 35 m 328 ft / 100 m

Approach Navaids

Runway Type Ident Frequency Range Bearing (true) Bearing (mag) Slope Elevation
27 Localiser IAOS 109.75 MHz 20 nm / 37 km 264.70° 262.59° - 1,797 ft / 548 m (AMSL)
27 Glidescope IAOS 109.75 MHz 10 nm / 19 km 264.70° 262.59° 5.00° 1,797 ft / 548 m (AMSL)
27 DME IAOS 109.75 MHz 25 nm / 46 km - - - 1,797 ft / 548 m (AMSL)

Map

Weather


0- 5 10 15 20 25 30 35+ Temperature / ° C

Clouds and Precipitation
Forecast for 2018-05-23 12:00 UTC. Updated 18 minutes ago

Ground ~20,000 ft ~40,000 ft Winds

METAR

LIMW 231120Z AUTO 10008KT 9999 BKN100 20/11 Q1018

TAF

Not found

Frequencies

Tower 119.95 MHz INFO
Warning: Do not use this data for real-world aviation or navigation. No guarantee of current accuracy is given.